sensor_id;sensor_type;location;lat;lon;timestamp;pressure;altitude;pressure_sealevel;temperature;humidity
27425;BME280;15244;49.088;11.886;2024-02-23T00:02:43;93667.78;;;10.86;59.21
27425;BME280;15244;49.088;11.886;2024-02-23T00:07:45;93679.22;;;10.94;59.11
27425;BME280;15244;49.088;11.886;2024-02-23T00:12:47;93684.59;;;10.97;58.91
27425;BME280;15244;49.088;11.886;2024-02-23T00:17:50;93688.84;;;10.98;58.63
27425;BME280;15244;49.088;11.886;2024-02-23T00:22:52;93704.88;;;10.96;58.63
27425;BME280;15244;49.088;11.886;2024-02-23T00:27:54;93729.59;;;10.76;58.42
27425;BME280;15244;49.088;11.886;2024-02-23T00:32:56;93704.75;;;10.74;58.05
27425;BME280;15244;49.088;11.886;2024-02-23T00:37:58;93730.75;;;10.62;57.79
27425;BME280;15244;49.088;11.886;2024-02-23T00:43:00;93713.75;;;10.58;57.73
27425;BME280;15244;49.088;11.886;2024-02-23T00:48:03;93729.25;;;10.61;57.95
27425;BME280;15244;49.088;11.886;2024-02-23T00:53:04;93748.97;;;10.66;57.58
27425;BME280;15244;49.088;11.886;2024-02-23T00:58:06;93761.94;;;10.61;57.62
27425;BME280;15244;49.088;11.886;2024-02-23T01:03:09;93756.47;;;10.61;57.19
27425;BME280;15244;49.088;11.886;2024-02-23T01:08:11;93776.13;;;10.69;57.16
27425;BME280;15244;49.088;11.886;2024-02-23T01:13:13;93823.00;;;10.64;57.33
27425;BME280;15244;49.088;11.886;2024-02-23T01:18:15;93829.16;;;10.19;56.23
27425;BME280;15244;49.088;11.886;2024-02-23T01:23:17;93847.28;;;9.93;56.58
27425;BME280;15244;49.088;11.886;2024-02-23T01:28:18;93845.06;;;9.88;56.40
27425;BME280;15244;49.088;11.886;2024-02-23T01:33:20;93859.84;;;9.70;56.21
27425;BME280;15244;49.088;11.886;2024-02-23T01:38:22;93864.00;;;9.59;56.24
27425;BME280;15244;49.088;11.886;2024-02-23T01:43:27;93871.56;;;9.31;55.87
27425;BME280;15244;49.088;11.886;2024-02-23T01:48:28;93856.69;;;9.19;56.02
27425;BME280;15244;49.088;11.886;2024-02-23T01:53:30;93862.44;;;9.01;56.50
27425;BME280;15244;49.088;11.886;2024-02-23T01:58:35;93836.94;;;8.95;56.45
27425;BME280;15244;49.088;11.886;2024-02-23T02:03:38;93833.81;;;8.97;56.50
27425;BME280;15244;49.088;11.886;2024-02-23T02:08:40;93847.53;;;8.89;56.76
27425;BME280;15244;49.088;11.886;2024-02-23T02:13:42;93874.00;;;8.85;56.28
27425;BME280;15244;49.088;11.886;2024-02-23T02:18:43;93867.66;;;8.72;56.52
27425;BME280;15244;49.088;11.886;2024-02-23T02:23:48;93861.53;;;8.68;56.48
27425;BME280;15244;49.088;11.886;2024-02-23T02:28:50;93881.44;;;8.61;56.29
27425;BME280;15244;49.088;11.886;2024-02-23T02:33:52;93885.00;;;8.58;55.98
27425;BME280;15244;49.088;11.886;2024-02-23T02:38:54;93902.47;;;8.57;56.13
27425;BME280;15244;49.088;11.886;2024-02-23T02:43:55;93918.88;;;8.50;56.33
27425;BME280;15244;49.088;11.886;2024-02-23T02:48:58;93918.59;;;8.44;56.47
27425;BME280;15244;49.088;11.886;2024-02-23T02:53:59;93937.00;;;8.33;56.11
27425;BME280;15244;49.088;11.886;2024-02-23T02:59:01;93935.97;;;8.23;56.11
27425;BME280;15244;49.088;11.886;2024-02-23T03:04:03;93947.59;;;8.24;56.14
27425;BME280;15244;49.088;11.886;2024-02-23T03:09:05;93943.28;;;8.27;56.33
27425;BME280;15244;49.088;11.886;2024-02-23T03:14:08;93933.56;;;8.29;55.89
27425;BME280;15244;49.088;11.886;2024-02-23T03:19:11;93949.78;;;8.33;55.92
27425;BME280;15244;49.088;11.886;2024-02-23T03:24:14;93964.47;;;8.35;55.98
27425;BME280;15244;49.088;11.886;2024-02-23T03:29:16;93972.97;;;8.37;55.80
27425;BME280;15244;49.088;11.886;2024-02-23T03:34:19;93979.16;;;8.41;55.66
27425;BME280;15244;49.088;11.886;2024-02-23T03:39:21;93975.34;;;8.35;55.48
27425;BME280;15244;49.088;11.886;2024-02-23T03:44:23;93982.69;;;8.38;55.30
27425;BME280;15244;49.088;11.886;2024-02-23T03:49:25;93982.66;;;8.42;55.58
27425;BME280;15244;49.088;11.886;2024-02-23T03:54:27;93974.19;;;8.36;55.07
27425;BME280;15244;49.088;11.886;2024-02-23T03:59:29;93986.94;;;8.39;55.11
27425;BME280;15244;49.088;11.886;2024-02-23T04:04:31;93990.44;;;8.40;55.17
27425;BME280;15244;49.088;11.886;2024-02-23T04:09:33;93986.56;;;8.41;55.05
27425;BME280;15244;49.088;11.886;2024-02-23T04:14:35;93983.44;;;8.39;54.76
27425;BME280;15244;49.088;11.886;2024-02-23T04:19:40;93965.59;;;8.38;54.67
27425;BME280;15244;49.088;11.886;2024-02-23T04:24:42;93971.84;;;8.35;54.85
27425;BME280;15244;49.088;11.886;2024-02-23T04:29:44;93974.19;;;8.36;54.49
27425;BME280;15244;49.088;11.886;2024-02-23T04:34:45;93986.84;;;8.46;54.32
27425;BME280;15244;49.088;11.886;2024-02-23T04:39:47;93996.38;;;8.58;54.26
27425;BME280;15244;49.088;11.886;2024-02-23T04:44:49;94012.97;;;8.64;53.87
27425;BME280;15244;49.088;11.886;2024-02-23T04:49:51;94012.50;;;8.69;54.11
27425;BME280;15244;49.088;11.886;2024-02-23T04:54:53;94004.28;;;8.73;53.49
27425;BME280;15244;49.088;11.886;2024-02-23T04:59:54;94017.84;;;8.73;53.85
27425;BME280;15244;49.088;11.886;2024-02-23T05:04:57;94015.97;;;8.70;53.54
27425;BME280;15244;49.088;11.886;2024-02-23T05:09:59;93991.53;;;8.70;53.79
27425;BME280;15244;49.088;11.886;2024-02-23T05:15:01;94010.53;;;8.70;53.93
27425;BME280;15244;49.088;11.886;2024-02-23T05:20:05;94011.31;;;8.70;53.52
27425;BME280;15244;49.088;11.886;2024-02-23T05:25:09;94012.91;;;8.67;53.95
27425;BME280;15244;49.088;11.886;2024-02-23T05:30:12;94013.31;;;8.66;53.96
27425;BME280;15244;49.088;11.886;2024-02-23T05:35:14;94005.09;;;8.70;53.94
27425;BME280;15244;49.088;11.886;2024-02-23T05:40:15;93997.25;;;8.75;53.93
27425;BME280;15244;49.088;11.886;2024-02-23T05:45:17;93995.25;;;8.79;54.06
27425;BME280;15244;49.088;11.886;2024-02-23T05:50:19;94010.34;;;8.80;53.97
27425;BME280;15244;49.088;11.886;2024-02-23T05:55:21;94015.75;;;8.84;54.01
27425;BME280;15244;49.088;11.886;2024-02-23T06:00:23;94028.16;;;8.85;53.58
27425;BME280;15244;49.088;11.886;2024-02-23T06:05:24;94047.53;;;8.87;53.79
27425;BME280;15244;49.088;11.886;2024-02-23T06:10:29;94044.84;;;8.83;54.27
27425;BME280;15244;49.088;11.886;2024-02-23T06:15:31;94067.41;;;8.80;54.24
27425;BME280;15244;49.088;11.886;2024-02-23T06:20:34;94057.44;;;8.74;54.19
27425;BME280;15244;49.088;11.886;2024-02-23T06:25:35;94088.13;;;8.71;54.41
27425;BME280;15244;49.088;11.886;2024-02-23T06:30:37;94093.28;;;8.65;54.38
27425;BME280;15244;49.088;11.886;2024-02-23T06:35:39;94090.97;;;8.63;54.36
27425;BME280;15244;49.088;11.886;2024-02-23T06:40:41;94099.47;;;8.65;54.28
27425;BME280;15244;49.088;11.886;2024-02-23T06:45:53;94109.72;;;8.54;54.26
27425;BME280;15244;49.088;11.886;2024-02-23T06:50:55;94123.41;;;8.47;54.25
27425;BME280;15244;49.088;11.886;2024-02-23T06:55:56;94119.19;;;8.42;53.94
27425;BME280;15244;49.088;11.886;2024-02-23T07:01:01;94095.59;;;8.36;54.66
27425;BME280;15244;49.088;11.886;2024-02-23T07:06:04;94109.19;;;8.36;54.49
27425;BME280;15244;49.088;11.886;2024-02-23T07:11:06;94114.94;;;8.38;54.42
27425;BME280;15244;49.088;11.886;2024-02-23T07:16:08;94115.78;;;8.35;54.33
27425;BME280;15244;49.088;11.886;2024-02-23T07:21:10;94111.97;;;8.29;54.58
27425;BME280;15244;49.088;11.886;2024-02-23T07:26:12;94108.09;;;8.30;54.73
27425;BME280;15244;49.088;11.886;2024-02-23T07:31:14;94119.31;;;8.32;54.76
27425;BME280;15244;49.088;11.886;2024-02-23T07:36:17;94123.56;;;8.33;54.80
27425;BME280;15244;49.088;11.886;2024-02-23T07:41:18;94126.78;;;8.24;54.83
27425;BME280;15244;49.088;11.886;2024-02-23T07:46:21;94129.19;;;8.18;55.09
27425;BME280;15244;49.088;11.886;2024-02-23T07:51:28;94133.16;;;8.10;55.33
27425;BME280;15244;49.088;11.886;2024-02-23T07:56:30;94135.53;;;8.04;55.13
27425;BME280;15244;49.088;11.886;2024-02-23T08:01:33;94141.41;;;7.99;55.61
27425;BME280;15244;49.088;11.886;2024-02-23T08:06:36;94141.91;;;7.91;55.32
27425;BME280;15244;49.088;11.886;2024-02-23T08:11:38;94138.13;;;7.81;55.55
27425;BME280;15244;49.088;11.886;2024-02-23T08:16:40;94148.97;;;7.81;55.57
27425;BME280;15244;49.088;11.886;2024-02-23T08:21:43;94145.13;;;7.78;55.58
27425;BME280;15244;49.088;11.886;2024-02-23T08:26:46;94144.44;;;7.71;56.04
27425;BME280;15244;49.088;11.886;2024-02-23T08:31:48;94130.91;;;7.67;55.90
27425;BME280;15244;49.088;11.886;2024-02-23T08:36:51;94112.69;;;7.68;56.17
27425;BME280;15244;49.088;11.886;2024-02-23T08:41:53;94112.19;;;7.80;56.14
27425;BME280;15244;49.088;11.886;2024-02-23T08:46:56;94124.50;;;7.88;55.94
27425;BME280;15244;49.088;11.886;2024-02-23T08:51:58;94138.75;;;7.92;56.09
27425;BME280;15244;49.088;11.886;2024-02-23T08:57:00;94138.69;;;7.99;56.03
27425;BME280;15244;49.088;11.886;2024-02-23T09:02:02;94147.53;;;8.07;55.48
27425;BME280;15244;49.088;11.886;2024-02-23T09:07:05;94147.44;;;8.14;55.27
27425;BME280;15244;49.088;11.886;2024-02-23T09:12:07;94140.41;;;8.20;55.24
27425;BME280;15244;49.088;11.886;2024-02-23T09:17:12;94163.97;;;8.27;54.85
27425;BME280;15244;49.088;11.886;2024-02-23T09:22:14;94166.22;;;8.36;54.95
27425;BME280;15244;49.088;11.886;2024-02-23T09:27:17;94168.50;;;8.41;54.41
27425;BME280;15244;49.088;11.886;2024-02-23T09:32:21;94187.41;;;8.48;53.94
27425;BME280;15244;49.088;11.886;2024-02-23T09:37:23;94188.59;;;8.47;53.85
27425;BME280;15244;49.088;11.886;2024-02-23T09:42:25;94217.31;;;8.44;53.95
27425;BME280;15244;49.088;11.886;2024-02-23T09:47:31;94205.66;;;8.48;53.76
27425;BME280;15244;49.088;11.886;2024-02-23T09:52:33;94185.56;;;8.41;53.39
27425;BME280;15244;49.088;11.886;2024-02-23T09:57:35;94205.34;;;8.38;53.51
27425;BME280;15244;49.088;11.886;2024-02-23T10:02:39;94210.41;;;8.40;53.48
27425;BME280;15244;49.088;11.886;2024-02-23T10:07:42;94191.41;;;8.36;53.29
27425;BME280;15244;49.088;11.886;2024-02-23T10:12:44;94188.28;;;8.38;53.09
27425;BME280;15244;49.088;11.886;2024-02-23T10:17:46;94193.28;;;8.43;52.92
27425;BME280;15244;49.088;11.886;2024-02-23T10:22:48;94192.53;;;8.39;52.91
27425;BME280;15244;49.088;11.886;2024-02-23T10:27:51;94187.13;;;8.35;52.66
27425;BME280;15244;49.088;11.886;2024-02-23T10:32:55;94196.41;;;8.41;52.95
27425;BME280;15244;49.088;11.886;2024-02-23T10:37:58;94188.66;;;8.40;52.69
27425;BME280;15244;49.088;11.886;2024-02-23T10:43:02;94193.28;;;8.43;52.76
27425;BME280;15244;49.088;11.886;2024-02-23T10:48:07;94186.63;;;8.48;52.63
27425;BME280;15244;49.088;11.886;2024-02-23T10:53:10;94193.66;;;8.45;52.95
27425;BME280;15244;49.088;11.886;2024-02-23T10:58:13;94191.31;;;8.47;52.68
27425;BME280;15244;49.088;11.886;2024-02-23T11:03:18;94193.16;;;8.54;52.63
27425;BME280;15244;49.088;11.886;2024-02-23T11:08:20;94178.38;;;8.58;52.68
27425;BME280;15244;49.088;11.886;2024-02-23T11:13:39;94191.13;;;8.61;52.69
27425;BME280;15244;49.088;11.886;2024-02-23T11:18:40;94182.22;;;8.61;52.48
27425;BME280;15244;49.088;11.886;2024-02-23T11:23:49;94181.72;;;8.70;52.58
27425;BME280;15244;49.088;11.886;2024-02-23T11:28:54;94184.72;;;8.75;52.64
27425;BME280;15244;49.088;11.886;2024-02-23T11:33:57;94188.53;;;8.81;52.70
27425;BME280;15244;49.088;11.886;2024-02-23T11:39:00;94181.91;;;8.82;52.97
27425;BME280;15244;49.088;11.886;2024-02-23T11:44:02;94184.94;;;8.88;52.87
27425;BME280;15244;49.088;11.886;2024-02-23T11:49:05;94179.47;;;8.92;52.77
27425;BME280;15244;49.088;11.886;2024-02-23T11:54:07;94175.50;;;8.96;52.45
27425;BME280;15244;49.088;11.886;2024-02-23T11:59:09;94170.78;;;9.00;52.58
27425;BME280;15244;49.088;11.886;2024-02-23T12:04:11;94176.22;;;9.00;52.54
27425;BME280;15244;49.088;11.886;2024-02-23T12:09:14;94177.31;;;9.06;52.66
27425;BME280;15244;49.088;11.886;2024-02-23T12:14:15;94165.19;;;9.11;53.01
27425;BME280;15244;49.088;11.886;2024-02-23T12:19:18;94149.25;;;9.13;52.88
27425;BME280;15244;49.088;11.886;2024-02-23T12:24:19;94156.16;;;9.18;52.75
27425;BME280;15244;49.088;11.886;2024-02-23T12:29:21;94160.88;;;9.14;52.89
27425;BME280;15244;49.088;11.886;2024-02-23T12:34:24;94152.38;;;9.11;53.33
27425;BME280;15244;49.088;11.886;2024-02-23T12:39:26;94152.38;;;9.11;53.07
27425;BME280;15244;49.088;11.886;2024-02-23T12:44:29;94151.97;;;9.13;53.43
27425;BME280;15244;49.088;11.886;2024-02-23T12:49:31;94156.28;;;9.10;52.80
27425;BME280;15244;49.088;11.886;2024-02-23T12:54:32;94151.25;;;9.09;53.07
27425;BME280;15244;49.088;11.886;2024-02-23T12:59:34;94160.56;;;9.08;53.38
27425;BME280;15244;49.088;11.886;2024-02-23T13:04:36;94162.56;;;9.04;53.12
27425;BME280;15244;49.088;11.886;2024-02-23T13:09:37;94154.84;;;9.02;53.24
27425;BME280;15244;49.088;11.886;2024-02-23T13:14:40;94151.00;;;9.00;53.20
27425;BME280;15244;49.088;11.886;2024-02-23T13:19:42;94144.34;;;9.04;53.01
27425;BME280;15244;49.088;11.886;2024-02-23T13:24:53;94162.53;;;9.07;53.13
27425;BME280;15244;49.088;11.886;2024-02-23T13:29:55;94164.06;;;9.08;53.34
27425;BME280;15244;49.088;11.886;2024-02-23T13:34:57;94153.91;;;9.13;53.00
27425;BME280;15244;49.088;11.886;2024-02-23T13:39:59;94137.97;;;9.15;53.08
27425;BME280;15244;49.088;11.886;2024-02-23T13:45:01;94131.69;;;9.18;53.16
27425;BME280;15244;49.088;11.886;2024-02-23T13:50:04;94111.91;;;9.17;52.94
27425;BME280;15244;49.088;11.886;2024-02-23T13:55:06;94125.84;;;9.19;53.20
27425;BME280;15244;49.088;11.886;2024-02-23T14:00:09;94145.22;;;9.21;53.26
27425;BME280;15244;49.088;11.886;2024-02-23T14:05:14;94158.81;;;9.21;53.10
27425;BME280;15244;49.088;11.886;2024-02-23T14:10:17;94148.72;;;9.22;52.99
27425;BME280;15244;49.088;11.886;2024-02-23T14:15:18;94147.13;;;9.24;52.85
27425;BME280;15244;49.088;11.886;2024-02-23T14:20:20;94129.22;;;9.27;52.65
27425;BME280;15244;49.088;11.886;2024-02-23T14:25:22;94096.59;;;9.27;52.50
27425;BME280;15244;49.088;11.886;2024-02-23T14:30:24;94101.19;;;9.30;52.58
27425;BME280;15244;49.088;11.886;2024-02-23T14:35:26;94100.44;;;9.29;52.47
27425;BME280;15244;49.088;11.886;2024-02-23T14:40:27;94099.63;;;9.29;52.45
27425;BME280;15244;49.088;11.886;2024-02-23T14:45:29;94099.59;;;9.32;52.29
27425;BME280;15244;49.088;11.886;2024-02-23T14:50:31;94116.69;;;9.33;52.20
27425;BME280;15244;49.088;11.886;2024-02-23T14:55:32;94109.63;;;9.36;52.35
27425;BME280;15244;49.088;11.886;2024-02-23T15:00:34;94120.91;;;9.34;52.50
27425;BME280;15244;49.088;11.886;2024-02-23T15:05:35;94145.84;;;9.32;52.24
27425;BME280;15244;49.088;11.886;2024-02-23T15:10:37;94180.88;;;9.27;52.25
27425;BME280;15244;49.088;11.886;2024-02-23T15:15:39;94164.97;;;9.25;52.49
27425;BME280;15244;49.088;11.886;2024-02-23T15:20:42;94179.75;;;9.24;52.48
27425;BME280;15244;49.088;11.886;2024-02-23T15:25:44;94171.28;;;9.19;52.49
27425;BME280;15244;49.088;11.886;2024-02-23T15:30:50;94154.56;;;9.20;52.20
27425;BME280;15244;49.088;11.886;2024-02-23T15:35:57;94123.53;;;9.18;51.97
27425;BME280;15244;49.088;11.886;2024-02-23T15:40:59;94118.47;;;9.20;51.98
27425;BME280;15244;49.088;11.886;2024-02-23T15:46:01;94095.88;;;9.23;51.82
27425;BME280;15244;49.088;11.886;2024-02-23T15:51:03;94106.69;;;9.26;52.04
27425;BME280;15244;49.088;11.886;2024-02-23T15:56:24;94121.00;;;9.30;51.87
27425;BME280;15244;49.088;11.886;2024-02-23T16:01:26;94150.06;;;9.33;52.17
27425;BME280;15244;49.088;11.886;2024-02-23T16:06:28;94126.03;;;9.32;51.89
27425;BME280;15244;49.088;11.886;2024-02-23T16:11:34;94092.59;;;9.31;51.75
27425;BME280;15244;49.088;11.886;2024-02-23T16:16:38;94123.34;;;9.28;51.49
27425;BME280;15244;49.088;11.886;2024-02-23T16:21:42;94121.09;;;9.23;51.38
27425;BME280;15244;49.088;11.886;2024-02-23T16:26:44;94136.38;;;9.17;51.01
27425;BME280;15244;49.088;11.886;2024-02-23T16:31:47;94137.59;;;9.13;51.28
27425;BME280;15244;49.088;11.886;2024-02-23T16:36:48;94134.94;;;9.09;51.13
27425;BME280;15244;49.088;11.886;2024-02-23T16:41:50;94125.66;;;9.06;50.87
27425;BME280;15244;49.088;11.886;2024-02-23T16:46:52;94121.41;;;9.05;50.72
27425;BME280;15244;49.088;11.886;2024-02-23T16:51:54;94121.78;;;9.04;50.69
27425;BME280;15244;49.088;11.886;2024-02-23T16:56:55;94139.66;;;9.05;50.92
27425;BME280;15244;49.088;11.886;2024-02-23T17:01:59;94128.44;;;9.03;50.73
27425;BME280;15244;49.088;11.886;2024-02-23T17:07:01;94145.94;;;9.02;50.33
27425;BME280;15244;49.088;11.886;2024-02-23T17:12:03;94137.78;;;9.02;50.21
27425;BME280;15244;49.088;11.886;2024-02-23T17:17:05;94138.56;;;8.99;50.22
27425;BME280;15244;49.088;11.886;2024-02-23T17:22:07;94146.72;;;8.99;50.15
27425;BME280;15244;49.088;11.886;2024-02-23T17:27:10;94122.72;;;8.94;50.23
27425;BME280;15244;49.088;11.886;2024-02-23T17:32:12;94112.69;;;8.90;49.69
27425;BME280;15244;49.088;11.886;2024-02-23T17:37:14;94115.03;;;8.88;49.91
27425;BME280;15244;49.088;11.886;2024-02-23T17:42:17;94134.06;;;8.88;50.00
27425;BME280;15244;49.088;11.886;2024-02-23T17:47:19;94154.81;;;8.79;49.52
27425;BME280;15244;49.088;11.886;2024-02-23T17:52:22;94170.84;;;8.70;49.60
27425;BME280;15244;49.088;11.886;2024-02-23T17:57:24;94162.06;;;8.58;49.54
27425;BME280;15244;49.088;11.886;2024-02-23T18:02:27;94147.00;;;8.54;49.44
27425;BME280;15244;49.088;11.886;2024-02-23T18:07:29;94107.84;;;8.51;49.95
27425;BME280;15244;49.088;11.886;2024-02-23T18:12:31;94089.63;;;8.48;49.67
27425;BME280;15244;49.088;11.886;2024-02-23T18:17:34;94105.91;;;8.48;49.82
27425;BME280;15244;49.088;11.886;2024-02-23T18:22:36;94136.59;;;8.49;49.70
27425;BME280;15244;49.088;11.886;2024-02-23T18:27:39;94155.25;;;8.43;49.22
27425;BME280;15244;49.088;11.886;2024-02-23T18:32:42;94165.78;;;8.41;49.60
27425;BME280;15244;49.088;11.886;2024-02-23T18:37:43;94159.59;;;8.37;49.71
27425;BME280;15244;49.088;11.886;2024-02-23T18:42:49;94156.09;;;8.36;49.68
27425;BME280;15244;49.088;11.886;2024-02-23T18:47:52;94165.84;;;8.34;49.54
27425;BME280;15244;49.088;11.886;2024-02-23T18:52:54;94162.38;;;8.30;49.50
27425;BME280;15244;49.088;11.886;2024-02-23T18:57:57;94142.25;;;8.27;49.55
27425;BME280;15244;49.088;11.886;2024-02-23T19:03:01;94138.03;;;8.22;49.62
27425;BME280;15244;49.088;11.886;2024-02-23T19:08:04;94138.47;;;8.21;49.62
27425;BME280;15244;49.088;11.886;2024-02-23T19:13:07;94114.47;;;8.16;49.36
27425;BME280;15244;49.088;11.886;2024-02-23T19:18:09;94097.44;;;8.12;49.40
27425;BME280;15244;49.088;11.886;2024-02-23T19:23:11;94123.44;;;8.13;49.76
27425;BME280;15244;49.088;11.886;2024-02-23T19:28:13;94142.50;;;8.06;49.56
27425;BME280;15244;49.088;11.886;2024-02-23T19:33:15;94141.81;;;7.98;49.69
27425;BME280;15244;49.088;11.886;2024-02-23T19:38:17;94142.63;;;7.95;49.50
27425;BME280;15244;49.088;11.886;2024-02-23T19:43:19;94130.31;;;7.87;49.45
27425;BME280;15244;49.088;11.886;2024-02-23T19:48:21;94130.81;;;7.78;49.70
27425;BME280;15244;49.088;11.886;2024-02-23T19:53:22;94143.66;;;7.70;49.55
27425;BME280;15244;49.088;11.886;2024-02-23T19:58:25;94139.81;;;7.68;49.47
27425;BME280;15244;49.088;11.886;2024-02-23T20:03:28;94133.66;;;7.64;49.58
27425;BME280;15244;49.088;11.886;2024-02-23T20:08:31;94161.16;;;7.66;49.46
27425;BME280;15244;49.088;11.886;2024-02-23T20:13:34;94145.25;;;7.68;49.88
27425;BME280;15244;49.088;11.886;2024-02-23T20:18:37;94130.53;;;7.65;49.68
27425;BME280;15244;49.088;11.886;2024-02-23T20:23:40;94134.41;;;7.68;49.87
27425;BME280;15244;49.088;11.886;2024-02-23T20:28:43;94136.72;;;7.66;49.59
27425;BME280;15244;49.088;11.886;2024-02-23T20:33:46;94135.56;;;7.67;49.82
27425;BME280;15244;49.088;11.886;2024-02-23T20:38:48;94129.41;;;7.63;49.66
27425;BME280;15244;49.088;11.886;2024-02-23T20:43:51;94136.75;;;7.62;49.70
27425;BME280;15244;49.088;11.886;2024-02-23T20:48:53;94143.06;;;7.52;49.65
27425;BME280;15244;49.088;11.886;2024-02-23T20:53:55;94126.44;;;7.50;49.88
27425;BME280;15244;49.088;11.886;2024-02-23T20:58:57;94105.13;;;7.48;49.67
27425;BME280;15244;49.088;11.886;2024-02-23T21:03:59;94106.31;;;7.47;49.87
27425;BME280;15244;49.088;11.886;2024-02-23T21:09:03;94121.78;;;7.50;50.26
27425;BME280;15244;49.088;11.886;2024-02-23T21:14:05;94118.31;;;7.50;49.59
27425;BME280;15244;49.088;11.886;2024-02-23T21:19:06;94128.00;;;7.47;50.01
27425;BME280;15244;49.088;11.886;2024-02-23T21:24:09;94118.31;;;7.46;49.76
27425;BME280;15244;49.088;11.886;2024-02-23T21:29:11;94116.38;;;7.47;49.89
27425;BME280;15244;49.088;11.886;2024-02-23T21:34:14;94114.09;;;7.45;49.95
27425;BME280;15244;49.088;11.886;2024-02-23T21:39:18;94112.53;;;7.44;49.87
27425;BME280;15244;49.088;11.886;2024-02-23T21:44:22;94111.00;;;7.43;49.96
27425;BME280;15244;49.088;11.886;2024-02-23T21:49:25;94121.09;;;7.43;49.93
27425;BME280;15244;49.088;11.886;2024-02-23T21:54:28;94116.81;;;7.42;50.01
27425;BME280;15244;49.088;11.886;2024-02-23T21:59:30;94141.22;;;7.42;50.22
27425;BME280;15244;49.088;11.886;2024-02-23T22:04:32;94135.84;;;7.38;49.80
27425;BME280;15244;49.088;11.886;2024-02-23T22:09:35;94133.94;;;7.35;49.94
27425;BME280;15244;49.088;11.886;2024-02-23T22:14:37;94152.16;;;7.34;50.00
27425;BME280;15244;49.088;11.886;2024-02-23T22:19:39;94134.75;;;7.32;50.04
27425;BME280;15244;49.088;11.886;2024-02-23T22:24:41;94125.81;;;7.31;50.04
27425;BME280;15244;49.088;11.886;2024-02-23T22:29:44;94132.41;;;7.30;50.29
27425;BME280;15244;49.088;11.886;2024-02-23T22:34:48;94114.63;;;7.29;50.38
27425;BME280;15244;49.088;11.886;2024-02-23T22:39:50;94107.69;;;7.25;50.22
27425;BME280;15244;49.088;11.886;2024-02-23T22:44:53;94118.53;;;7.21;50.71
27425;BME280;15244;49.088;11.886;2024-02-23T22:49:56;94133.66;;;7.19;50.57
27425;BME280;15244;49.088;11.886;2024-02-23T22:54:59;94121.69;;;7.16;50.48
27425;BME280;15244;49.088;11.886;2024-02-23T23:00:03;94119.78;;;7.16;50.13
27425;BME280;15244;49.088;11.886;2024-02-23T23:05:06;94119.41;;;7.14;50.82
27425;BME280;15244;49.088;11.886;2024-02-23T23:10:09;94125.19;;;7.13;50.36
27425;BME280;15244;49.088;11.886;2024-02-23T23:15:11;94129.09;;;7.12;50.45
27425;BME280;15244;49.088;11.886;2024-02-23T23:20:12;94129.09;;;7.12;50.88
27425;BME280;15244;49.088;11.886;2024-02-23T23:25:15;94122.13;;;7.11;50.96
27425;BME280;15244;49.088;11.886;2024-02-23T23:30:18;94115.16;;;7.10;50.89
27425;BME280;15244;49.088;11.886;2024-02-23T23:35:21;94113.63;;;7.09;50.21
27425;BME280;15244;49.088;11.886;2024-02-23T23:40:23;94120.59;;;7.06;50.61
27425;BME280;15244;49.088;11.886;2024-02-23T23:45:26;94113.28;;;7.03;50.90
27425;BME280;15244;49.088;11.886;2024-02-23T23:50:28;94119.50;;;7.00;51.02
27425;BME280;15244;49.088;11.886;2024-02-23T23:55:29;94124.97;;;6.97;50.93
